Boulevard West (444, 445, 6931) Station Data

Red Flag Warning: Yes
Fire Weather Zone: 258
SDGE Region: Mountain Empire
Lat/Lon: 32.662/-116.289

Observations

Time Wind Speed/Gust Temp(F) RH Fuel Moist Fuel Temp(F) Dewpt(F) Tmax(F) Tmin(F) Accum Precip 10-min Precip SL Press(mb)
6/27 5:00pm 251 24 G 35 87° 9% - - 20° 91.1° 71.9° - - -
6/27 4:50pm 256 24 G 36 87° 9% - - 21° 91.1° 71.9° - - -
6/27 4:40pm 258 24 G 36 87° 9% - - 21° 91.1° 71.9° - - -
6/27 4:30pm 256 23 G 36 87° 9% - - 22° 91.1° 71.9° - - -
6/27 4:20pm 254 26 G 37 87° 9% - - 21° 91.1° 71.9° - - -
6/27 4:10pm 255 24 G 35 88° 9% - - 21° 91.1° 71.9° - - -
6/27 4:00pm 257 25 G 35 88° 9% - - 21° 91.1° 71.9° - - -
6/27 3:50pm 257 23 G 34 89° 8% - - 20° 91.1° 71.9° - - -
6/27 3:40pm 255 23 G 34 89° 8% - - 20° 91.1° 71.9° - - -
6/27 3:30pm 253 24 G 38 89° 8% - - 20° 91.1° 71.9° - - -
6/27 3:20pm 255 23 G 33 89° 8% - - 19° 91.1° 71.9° - - -
6/27 3:10pm 259 23 G 35 89° 8% - - 20° 91.1° 71.9° - - -
6/27 3:00pm 255 24 G 36 89° 8% - - 19° 91.1° 71.9° - - -
6/27 2:50pm 257 23 G 33 89° 7% - - 19° 91.1° 71.9° - - -
6/27 2:40pm 263 23 G 34 90° 8% - - 20° 91.1° 71.9° - - -
6/27 2:30pm 257 22 G 33 90° 8% - - 20° 91.1° 71.9° - - -
6/27 2:20pm 265 23 G 32 90° 8% - - 19° 91.1° 71.9° - - -
6/27 2:10pm 264 21 G 32 90° 7% - - 19° 91.1° 71.9° - - -
6/27 2:00pm 262 21 G 34 90° 7% - - 16° 91° 71.9° - - -
6/27 1:50pm 265 22 G 33 90° 6% - - 15° 91° 71.9° - - -
6/27 1:40pm 258 21 G 30 90° 6% - - 14° 91° 71.9° - - -
6/27 1:30pm 263 18 G 27 90° 6% - - 15° 91° 71.9° - - -
6/27 1:20pm 251 21 G 37 89° 6% - - 15° 90.6° 71.9° - - -
6/27 1:10pm 250 21 G 30 89° 6% - - 15° 90.6° 71.9° - - -
6/27 1:00pm 267 18 G 27 90° 7% - - 16° 90.6° 71.9° - - -
6/27 12:50pm 256 19 G 29 89° 7% - - 16° 90.6° 71.9° - - -
6/27 12:40pm 262 18 G 27 89° 7% - - 16° 90.6° 71.9° - - -
6/27 12:30pm 266 17 G 27 89° 7% - - 16° 90° 71.9° - - -
6/27 12:20pm 260 20 G 31 89° 7% - - 16° 89.8° 71.9° - - -
6/27 12:10pm 252 21 G 31 89° 7% - - 16° 89.6° 71.9° - - -
6/27 12:00pm 246 21 G 28 89° 7% - - 16° 89.6° 71.9° - - -
6/27 11:50am 259 20 G 27 89° 7% - - 17° 89.6° 71.9° - - -
6/27 11:40am 266 20 G 31 89° 7% - - 16° 89.5° 71.9° - - -
6/27 11:30am 268 19 G 27 88° 7% - - 17° 89.5° 71.9° - - -
6/27 11:20am 267 17 G 25 89° 7% - - 17° 89.5° 71.9° - - -
6/27 11:10am 259 20 G 32 87° 8% - - 17° 88.2° 71.9° - - -
6/27 11:00am 272 21 G 31 87° 8% - - 17° 87.8° 71.9° - - -
6/27 10:50am 268 21 G 32 87° 8% - - 17° 87.3° 71.9° - - -
6/27 10:40am 262 20 G 29 87° 8% - - 17° 87.3° 71.9° - - -
6/27 10:30am 264 21 G 31 86° 8% - - 17° 87° 71.9° - - -
6/27 10:20am 258 21 G 29 86° 8% - - 18° 86.6° 71.9° - - -
6/27 10:10am 260 20 G 30 86° 8% - - 17° 86.6° 71.9° - - -
6/27 10:00am 257 22 G 30 86° 7% - - 16° 86.6° 71.9° - - -
6/27 9:50am 267 19 G 26 86° 8% - - 17° 86.6° 71.9° - - -
6/27 9:40am 263 19 G 30 86° 8% - - 18° 86.6° 71.9° - - -
6/27 9:30am 256 20 G 30 84° 9% - - 19° 84.5° 71.9° - - -
6/27 9:20am 265 22 G 33 84° 9% - - 19° 84.4° 71.9° - - -
6/27 9:10am 262 21 G 27 84° 9% - - 19° 84.1° 71.9° - - -
6/27 8:50am 262 20 G 28 83° 10% - - 20° 82.9° 71.9° - - -
6/27 8:40am 264 20 G 27 82° 10% - - 20° 82.4° 71.9° - - -
6/27 8:30am 265 20 G 26 82° 10% - - 20° 81.9° 71.9° - - -
6/27 8:20am 266 18 G 27 81° 11% - - 21° 81.4° 71.9° - - -
6/27 8:10am 263 17 G 23 80° 11% - - 21° 80.1° 71.9° - - -
6/27 8:00am 262 18 G 25 79° 11% - - 20° 79.3° 71.9° - - -
6/27 7:50am 259 18 G 26 78° 11% - - 20° 78.6° 71.9° - - -
6/27 7:40am 261 17 G 24 78° 11% - - 19° 78.3° 71.9° - - -
6/27 7:30am 263 17 G 27 78° 11% - - 19° 78° 71.9° - - -
6/27 7:20am 262 19 G 26 77° 11% - - 18° 77.3° 71.9° - - -
6/27 7:10am 264 18 G 24 77° 11% - - 18° 77.1° 71.9° - - -
6/27 7:00am 263 19 G 24 76° 11% - - 18° 76.5° 71.9° - - -
6/27 6:50am 264 19 G 24 76° 11% - - 18° 76.3° 71.9° - - -
6/27 6:40am 263 18 G 23 75° 11% - - 18° 75.7° 71.9° - - -
6/27 6:30am 261 17 G 22 74° 12% - - 18° 75.7° 71.9° - - -
6/27 6:20am 259 17 G 23 74° 12% - - 18° 75.7° 71.9° - - -
6/27 6:10am 258 17 G 22 73° 12% - - 17° 75.7° 71.9° - - -
6/27 6:00am 257 18 G 22 73° 12% - - 17° 75.7° 71.9° - - -
6/27 5:50am 255 19 G 24 72° 12% - - 18° 75.7° 71.9° - - -
6/27 5:40am 254 19 G 24 72° 13% - - 18° 75.7° 71.9° - - -
6/27 5:30am 254 19 G 25 72° 12% - - 18° 75.7° 72.1° - - -
6/27 5:20am 254 19 G 23 72° 12% - - 18° 75.7° 72.1° - - -
6/27 5:10am 255 19 G 27 72° 12% - - 18° 75.7° 72.1° - - -
6/27 5:00am 253 18 G 23 73° 12% - - 18° 75.7° 72.3° - - -
6/27 4:50am 254 18 G 23 73° 12% - - 18° 75.7° 72.6° - - -
6/27 4:40am 255 19 G 23 73° 12% - - 18° 75.7° 72.8° - - -
6/27 4:30am 255 19 G 27 73° 12% - - 18° 75.7° 72.8° - - -
6/27 4:20am 253 20 G 26 73° 12% - - 18° 75.7° 72.8° - - -
6/27 4:10am 258 19 G 24 74° 12% - - 17° 75.7° 72.9° - - -
6/27 4:00am 259 19 G 24 73° 12% - - 17° 75.7° 72.9° - - -
6/27 3:50am 254 19 G 25 74° 12% - - 17° 75.7° 73.1° - - -
6/27 3:40am 259 18 G 24 74° 11% - - 17° 75.7° 73.3° - - -
6/27 3:30am 258 18 G 26 74° 11% - - 17° 75.7° 73.3° - - -
6/27 3:20am 258 18 G 24 75° 11% - - 17° 75.7° 73.3° - - -
6/27 3:10am 263 18 G 25 75° 11% - - 16° 75.7° 73.3° - - -
6/27 3:00am 261 18 G 23 75° 11% - - 16° 75.7° 73.3° - - -
6/27 2:50am 259 17 G 23 74° 11% - - 16° 75.7° 73.3° - - -
6/27 2:40am 255 18 G 22 74° 10% - - 15° 75.7° 73.3° - - -
6/27 2:30am 257 19 G 26 75° 10% - - 15° 75.7° 73.3° - - -
6/27 2:20am 260 19 G 24 75° 10% - - 14° 75.6° 73.3° - - -
6/27 2:10am 261 18 G 24 75° 9% - - 13° 75.6° 73.3° - - -
6/27 2:00am 258 18 G 22 75° 9% - - 13° 75.6° 73.3° - - -
6/27 1:50am 259 18 G 22 75° 9% - - 13° 75.6° 73.3° - - -
6/27 1:40am 259 18 G 23 75° 9% - - 12° 75.6° 73.3° - - -
6/27 1:30am 259 18 G 24 75° 9% - - 13° 75.6° 73.3° - - -
6/27 1:20am 261 17 G 21 74° 10% - - 14° 75.4° 73.3° - - -
6/27 1:10am 256 15 G 20 74° 10% - - 14° 75.4° 73.3° - - -
6/27 1:00am 255 14 G 18 74° 10% - - 15° 75.4° 73.3° - - -
6/27 12:50am 251 14 G 17 74° 10% - - 15° 75.4° 73.6° - - -
6/27 12:40am 249 14 G 17 74° 10% - - 15° 75.4° 73.7° - - -
6/27 12:30am 247 13 G 17 74° 10% - - 15° 75.4° 74° - - -
6/27 12:20am 247 12 G 15 75° 10% - - 15° 75.4° 74.5° - - -
6/27 12:10am 248 10 G 13 75° 10% - - 15° 75.4° 74.9° - - -
6/27 12:00am 245 11 G 13 75° 10% - - 15° 96.2° 74.1° - - -
6/26 11:50pm 245 11 G 14 75° 10% - - 15° 96.2° 74.1° - - -
6/26 11:40pm 254 8 G 11 75° 10% - - 15° 96.2° 74.1° - - -
6/26 11:30pm 255 8 G 11 76° 10% - - 15° 96.2° 74.1° - - -
6/26 11:20pm 258 9 G 12 76° 10% - - 16° 96.2° 74.1° - - -
6/26 11:10pm 253 11 G 13 76° 10% - - 16° 96.2° 74.1° - - -
6/26 11:00pm 254 11 G 12 76° 10% - - 16° 96.2° 74.1° - - -
6/26 10:50pm 258 9 G 13 76° 11% - - 17° 96.2° 74.1° - - -
6/26 10:40pm 256 8 G 12 76° 11% - - 18° 96.2° 74.1° - - -
6/26 10:30pm 258 7 G 11 75° 12% - - 19° 96.2° 74.1° - - -
6/26 10:20pm 246 11 G 13 75° 13% - - 21° 96.2° 74.1° - - -
6/26 10:10pm 244 12 G 14 76° 13% - - 22° 96.2° 74.1° - - -
6/26 10:00pm 244 11 G 13 75° 14% - - 23° 96.2° 74.1° - - -
6/26 9:50pm 246 10 G 11 76° 14% - - 23° 96.2° 74.1° - - -
6/26 9:40pm 245 8 G 10 77° 14% - - 23° 96.2° 74.1° - - -
6/26 9:30pm 255 7 G 10 78° 13% - - 23° 96.2° 74.1° - - -
6/26 9:20pm 263 10 G 14 79° 12% - - 23° 96.2° 74.1° - - -
6/26 9:10pm 262 10 G 14 80° 12% - - 23° 96.2° 74.1° - - -
6/26 9:00pm 265 11 G 15 80° 12% - - 22° 96.2° 74.1° - - -
6/26 8:50pm 264 11 G 15 80° 11% - - 21° 96.2° 74.1° - - -
6/26 8:40pm 266 11 G 16 81° 11% - - 21° 96.2° 74.1° - - -
6/26 8:30pm 270 11 G 15 81° 11% - - 21° 96.2° 74.1° - - -
6/26 8:20pm 269 12 G 16 82° 10% - - 20° 96.2° 74.1° - - -
6/26 8:10pm 271 13 G 19 82° 9% - - 19° 96.2° 74.1° - - -
6/26 8:00pm 275 14 G 18 83° 9% - - 19° 96.2° 74.1° - - -
6/26 7:50pm 279 15 G 21 84° 9% - - 19° 96.2° 74.1° - - -
6/26 7:40pm 279 15 G 21 85° 9% - - 20° 96.2° 74.1° - - -
6/26 7:30pm 279 16 G 25 86° 9% - - 21° 96.2° 74.1° - - -
6/26 7:20pm 284 17 G 26 87° 9% - - 21° 96.2° 74.1° - - -
6/26 7:10pm 279 15 G 21 88° 9% - - 22° 96.2° 74.1° - - -
6/26 7:00pm 283 14 G 20 88° 9% - - 22° 96.2° 74.1° - - -
6/26 6:50pm 282 17 G 25 88° 8% - - 21° 96.2° 74.1° - - -
6/26 6:40pm 279 20 G 28 89° 8% - - 21° 96.2° 74.1° - - -
6/26 6:30pm 279 21 G 32 89° 8% - - 21° 96.2° 74.1° - - -
6/26 6:20pm 281 19 G 27 90° 8% - - 21° 96.2° 74.1° - - -
6/26 6:10pm 279 20 G 27 90° 8% - - 21° 96.2° 74.1° - - -
6/26 6:00pm 284 16 G 27 91° 8% - - 22° 96.2° 74.1° - - -
6/26 5:50pm 291 15 G 21 92° 8% - - 22° 96.2° 74.1° - - -
6/26 5:40pm 292 16 G 23 92° 8% - - 22° 96.2° 74.1° - - -
6/26 5:30pm 275 15 G 23 92° 8% - - 23° 96.2° 74.1° - - -
6/26 5:20pm 294 17 G 24 92° 8% - - 23° 96.2° 74.1° - - -
6/26 5:10pm 291 19 G 26 93° 8% - - 24° 96.2° 74.1° - - -
6/26 5:00pm 276 16 G 23 93° 9% - - 26° 96.2° 74.1° - - -
6/26 4:50pm 290 18 G 27 93° 9% - - 26° 96.2° 74.1° - - -
6/26 4:40pm 290 21 G 28 93° 9% - - 25° 96.2° 74.1° - - -
6/26 4:30pm 290 20 G 30 94° 9% - - 26° 96.2° 74.1° - - -
6/26 4:20pm 274 16 G 25 94° 9% - - 27° 96.2° 74.1° - - -
6/26 4:10pm 285 16 G 31 95° 9% - - 27° 96.2° 74.1° - - -
6/26 4:00pm 270 19 G 25 94° 9% - - 26° 96.2° 74.1° - - -
6/26 3:50pm 277 18 G 28 94° 9% - - 27° 96.2° 74.1° - - -
6/26 3:40pm 284 18 G 26 95° 9% - - 27° 96.2° 74.1° - - -
6/26 3:30pm 278 17 G 25 95° 9% - - 28° 96.2° 74.1° - - -
6/26 3:20pm 277 18 G 27 95° 9% - - 28° 96.2° 74.1° - - -
6/26 3:10pm 294 18 G 30 95° 9% - - 28° 96.2° 74.1° - - -
6/26 3:00pm 274 17 G 27 95° 9% - - 28° 96.2° 74.1° - - -
6/26 2:50pm 276 17 G 30 95° 9% - - 27° 96.2° 74.1° - - -
6/26 2:40pm 286 16 G 26 95° 9% - - 27° 96.2° 74.1° - - -
6/26 2:30pm 293 16 G 27 95° 9% - - 27° 96.2° 74.1° - - -
6/26 2:20pm 300 16 G 25 95° 9% - - 26° 96.2° 74.1° - - -
6/26 2:10pm 285 15 G 28 95° 8% - - 26° 96.2° 74.1° - - -
6/26 2:00pm 289 14 G 23 95° 8% - - 25° 95.7° 74.1° - - -
6/26 1:50pm 299 17 G 26 94° 8% - - 25° 95.7° 74.1° - - -
6/26 1:40pm 289 17 G 26 95° 8% - - 25° 95.7° 74.1° - - -
6/26 1:30pm 294 17 G 26 95° 8% - - 25° 95.7° 74.1° - - -
6/26 1:20pm 286 15 G 25 95° 8% - - 25° 95.7° 74.1° - - -
6/26 1:10pm 290 17 G 24 94° 9% - - 26° 95.7° 74.1° - - -
6/26 1:00pm 274 16 G 27 94° 9% - - 26° 95.7° 74.1° - - -
6/26 12:50pm 276 14 G 25 94° 9% - - 26° 95.7° 74.1° - - -
6/26 12:40pm 283 14 G 22 93° 9% - - 26° 95.3° 74.1° - - -
6/26 12:30pm 294 17 G 24 93° 9% - - 26° 95.3° 74.1° - - -
6/26 12:20pm 284 14 G 26 95° 9% - - 26° 95.3° 74.1° - - -
6/26 12:10pm 304 12 G 22 94° 9% - - 26° 94.9° 74.1° - - -
6/26 12:00pm 302 14 G 20 94° 9% - - 26° 94.9° 74.1° - - -
6/26 11:50am 291 14 G 21 94° 9% - - 26° 94.9° 74.1° - - -
6/26 11:40am 291 16 G 23 94° 9% - - 26° 94.9° 74.1° - - -
6/26 11:30am 284 16 G 23 94° 9% - - 26° 94.3° 74.1° - - -
6/26 11:20am 280 18 G 24 93° 9% - - 26° 93.8° 74.1° - - -
6/26 11:10am 277 16 G 23 93° 9% - - 26° 93.8° 74.1° - - -
6/26 11:00am 275 15 G 22 92° 9% - - 26° 93.8° 74.1° - - -
6/26 10:50am 283 16 G 22 92° 9% - - 25° 93.8° 74.1° - - -
6/26 10:40am 286 14 G 19 93° 9% - - 25° 93.8° 74.1° - - -
6/26 10:30am 275 14 G 21 93° 9% - - 25° 93.8° 74.1° - - -
6/26 10:20am 287 13 G 22 93° 9% - - 26° 93.8° 74.1° - - -
6/26 10:10am 294 11 G 16 92° 9% - - 26° 92.9° 74.1° - - -
6/26 10:00am 302 13 G 20 92° 9% - - 25° 92.9° 74.1° - - -
6/26 9:50am 284 12 G 18 92° 9% - - 25° 92.9° 74.1° - - -
6/26 9:40am 280 12 G 19 92° 9% - - 24° 92.8° 74.1° - - -
6/26 9:30am 291 13 G 20 92° 9% - - 25° 92.8° 74.1° - - -
6/26 9:20am 306 10 G 18 92° 9% - - 25° 92.8° 74.1° - - -
6/26 9:10am 319 7 G 15 92° 9% - - 26° 92.8° 74.1° - - -
6/26 9:00am 281 5 G 11 91° 10% - - 26° 92.8° 74.1° - - -
6/26 8:50am 279 6 G 10 91° 9% - - 25° 92.8° 74.1° - - -
6/26 8:40am 158 3 G 10 92° 10% - - 27° 92.8° 74.1° - - -
6/26 8:30am 81 3 G 4 91° 12% - - 30° 91.6° 74.1° - - -
6/26 8:20am 63 3 G 5 90° 14% - - 34° 90.7° 74.1° - - -
6/26 8:10am 124 2 G 3 90° 13% - - 32° 90.4° 74.1° - - -
6/26 8:00am 232 2 G 4 87° 15% - - 33° 88.2° 74.1° - - -
6/26 7:50am 193 1 G 4 86° 15% - - 33° 87.6° 74.1° - - -
6/26 7:40am 263 1 G 3 83° 17% - - 33° 84° 74.1° - - -
6/26 7:30am 266 3 G 4 83° 15% - - 31° 83.9° 74.1° - - -
6/26 7:20am 255 4 G 5 82° 15% - - 30° 83.9° 74.1° - - -
6/26 7:10am 254 3 G 5 81° 15% - - 28° 83.9° 74.1° - - -
6/26 7:00am 204 3 G 5 81° 13% - - 26° 83.9° 74.1° - - -
6/26 6:50am 173 2 G 3 82° 12% - - 24° 83.9° 74.1° - - -
6/26 6:40am 157 2 G 3 82° 12% - - 24° 83.9° 74.1° - - -
6/26 6:30am 104 1 G 2 81° 12% - - 24° 83.9° 74.1° - - -
6/26 6:20am 273 1 G 2 79° 13% - - 24° 83.9° 74.1° - - -
6/26 6:10am 307 3 G 4 77° 14% - - 24° 83.9° 74.1° - - -
6/26 6:00am 353 3 G 4 78° 13% - - 24° 83.9° 74.1° - - -